createdAt,value
2023-01-22T00:00:20.005Z,4.32
2023-01-22T00:03:47.525Z,4.27
2023-01-22T00:06:56.394Z,4.31
2023-01-22T00:10:24.035Z,4.31
2023-01-22T00:13:13.273Z,4.25
2023-01-22T00:16:40.911Z,4.10
2023-01-22T00:20:08.824Z,3.95
2023-01-22T00:23:36.606Z,3.86
2023-01-22T00:27:04.157Z,3.79
2023-01-22T00:30:12.659Z,3.72
2023-01-22T00:33:40.437Z,3.69
2023-01-22T00:37:08.194Z,3.65
2023-01-22T00:40:17.164Z,3.72
2023-01-22T00:43:44.898Z,3.77
2023-01-22T00:47:12.707Z,3.82
2023-01-22T00:50:40.518Z,3.81
2023-01-22T00:54:08.422Z,3.77
2023-01-22T00:57:17.046Z,3.73
2023-01-22T01:00:25.417Z,3.70
2023-01-22T01:03:53.316Z,3.66
2023-01-22T01:07:20.965Z,3.64
2023-01-22T01:10:48.859Z,3.61
2023-01-22T01:14:16.525Z,3.62
2023-01-22T01:17:25.046Z,3.59
2023-01-22T01:20:52.774Z,3.57
2023-01-22T01:24:20.382Z,3.54
2023-01-22T01:27:48.212Z,3.48
2023-01-22T01:31:16.263Z,3.46
2023-01-22T01:34:43.712Z,3.41
2023-01-22T01:38:11.423Z,3.41
2023-01-22T01:41:39.365Z,3.37
2023-01-22T01:44:48.430Z,3.33
2023-01-22T01:48:16.240Z,3.34
2023-01-22T01:51:44.031Z,3.35
2023-01-22T01:55:11.813Z,3.37
2023-01-22T01:58:39.440Z,3.36
2023-01-22T02:02:07.221Z,3.31
2023-01-22T02:05:34.797Z,3.18
2023-01-22T02:09:02.576Z,3.05
2023-01-22T02:12:30.453Z,2.95
2023-01-22T02:15:57.942Z,2.85
2023-01-22T02:19:06.944Z,2.80
2023-01-22T02:22:15.554Z,2.75
2023-01-22T02:25:43.164Z,2.72
2023-01-22T02:29:10.869Z,2.77
2023-01-22T02:32:38.352Z,2.83
2023-01-22T02:36:05.894Z,2.92
2023-01-22T02:39:33.747Z,3.00
2023-01-22T02:43:01.374Z,3.08
2023-01-22T02:46:29.095Z,3.06
2023-01-22T02:49:56.824Z,3.06
2023-01-22T02:53:05.384Z,3.03
2023-01-22T02:56:33.196Z,3.05
2023-01-22T03:00:00.988Z,3.09
2023-01-22T03:03:28.488Z,3.12
2023-01-22T03:06:56.314Z,3.26
2023-01-22T03:10:04.126Z,3.29
2023-01-22T03:13:31.867Z,3.32
2023-01-22T03:16:59.445Z,3.26
2023-01-22T03:20:27.082Z,3.32
2023-01-22T03:23:54.802Z,3.41
2023-01-22T03:27:22.604Z,3.50
2023-01-22T03:30:50.472Z,3.57
2023-01-22T03:33:39.699Z,3.61
2023-01-22T03:37:07.445Z,3.67
2023-01-22T03:40:35.008Z,3.71
2023-01-22T03:44:02.554Z,3.75
2023-01-22T03:47:30.511Z,3.75
2023-01-22T03:50:58.539Z,3.73
2023-01-22T03:54:26.229Z,3.69
2023-01-22T03:57:54.095Z,3.63
2023-01-22T04:01:21.696Z,3.58
2023-01-22T04:04:50.332Z,3.61
2023-01-22T04:07:59.042Z,3.58
2023-01-22T04:11:26.816Z,3.60
2023-01-22T04:14:54.611Z,3.57
2023-01-22T04:18:02.752Z,3.58
2023-01-22T04:21:30.500Z,3.54
2023-01-22T04:24:58.194Z,3.46
2023-01-22T04:28:05.985Z,3.41
2023-01-22T04:31:34.073Z,3.40
2023-01-22T04:35:17.176Z,3.35
2023-01-22T04:38:25.502Z,3.35
2023-01-22T04:41:53.339Z,3.28
2023-01-22T04:45:21.021Z,3.31
2023-01-22T04:48:29.723Z,3.37
2023-01-22T04:51:57.606Z,3.43
2023-01-22T04:55:06.707Z,3.48
2023-01-22T04:58:43.727Z,3.54
2023-01-22T05:02:11.369Z,3.57
2023-01-22T05:05:20.150Z,3.57
2023-01-22T05:08:29.844Z,3.57
2023-01-22T05:11:57.365Z,3.53
2023-01-22T05:15:25.487Z,3.46
2023-01-22T05:18:36.913Z,3.42
2023-01-22T05:22:04.913Z,3.38
2023-01-22T05:25:32.563Z,3.38
2023-01-22T05:29:00.351Z,3.37
2023-01-22T05:32:30.731Z,3.39
2023-01-22T05:35:39.434Z,3.38
2023-01-22T05:39:07.252Z,3.34
2023-01-22T05:42:34.924Z,3.29
2023-01-22T05:46:02.644Z,3.24
2023-01-22T05:49:29.252Z,3.22
2023-01-22T05:52:56.732Z,3.19
2023-01-22T05:56:05.183Z,3.16
2023-01-22T05:59:33.010Z,3.18
2023-01-22T06:02:41.926Z,3.18
2023-01-22T06:05:30.567Z,3.12
2023-01-22T06:08:58.152Z,3.09
2023-01-22T06:12:06.940Z,3.11
2023-01-22T06:15:15.010Z,3.12
2023-01-22T06:18:26.357Z,3.14
2023-01-22T06:21:53.928Z,3.14
2023-01-22T06:25:21.834Z,3.16
2023-01-22T06:28:49.659Z,3.17
2023-01-22T06:32:17.423Z,3.15
2023-01-22T06:35:45.207Z,3.14
2023-01-22T06:39:12.904Z,3.14
2023-01-22T06:42:40.359Z,3.13
2023-01-22T06:46:08.061Z,3.12
2023-01-22T06:49:35.633Z,3.13
2023-01-22T06:53:03.542Z,3.15
2023-01-22T06:56:31.253Z,3.13
2023-01-22T06:59:39.915Z,3.10
2023-01-22T07:03:07.748Z,3.18
2023-01-22T07:06:17.570Z,3.24
2023-01-22T07:09:45.642Z,3.29
2023-01-22T07:13:13.644Z,3.35
2023-01-22T07:16:41.353Z,3.44
2023-01-22T07:20:09.129Z,3.53
2023-01-22T07:23:36.763Z,3.52
2023-01-22T07:27:04.425Z,3.59
2023-01-22T07:30:32.306Z,3.63
2023-01-22T07:34:00.114Z,3.66
2023-01-22T07:37:07.708Z,3.75
2023-01-22T07:40:35.425Z,3.82
2023-01-22T07:43:43.960Z,3.85
2023-01-22T07:47:11.797Z,3.93
2023-01-22T07:50:20.634Z,3.97
2023-01-22T07:53:48.343Z,4.00
2023-01-22T07:57:16.130Z,3.99
2023-01-22T08:00:43.708Z,4.04
2023-01-22T08:04:11.727Z,4.08
2023-01-22T08:07:39.339Z,4.00
2023-01-22T08:11:07.057Z,3.97
2023-01-22T08:14:15.250Z,4.00
2023-01-22T08:17:42.995Z,3.97
2023-01-22T08:21:10.697Z,3.96
2023-01-22T08:24:38.564Z,3.94
2023-01-22T08:28:06.209Z,3.87
2023-01-22T08:31:34.061Z,3.94
2023-01-22T08:35:01.665Z,4.06
2023-01-22T08:38:29.455Z,3.75
2023-01-22T08:41:57.296Z,3.79
2023-01-22T08:45:05.923Z,3.88
2023-01-22T08:48:33.374Z,3.67
2023-01-22T08:52:01.328Z,3.64
2023-01-22T08:55:29.017Z,3.61
2023-01-22T08:58:56.856Z,3.63
2023-01-22T09:02:24.791Z,3.64
2023-01-22T09:05:52.551Z,3.79
2023-01-22T09:09:20.304Z,3.92
2023-01-22T09:12:48.060Z,3.97
2023-01-22T09:16:15.824Z,4.01
2023-01-22T09:19:43.713Z,4.03
2023-01-22T09:23:11.431Z,3.79
2023-01-22T09:26:39.326Z,3.60
2023-01-22T09:30:07.264Z,3.55
2023-01-22T09:33:35.238Z,3.58
2023-01-22T09:37:03.251Z,3.54
2023-01-22T09:39:52.657Z,3.59
2023-01-22T09:43:20.383Z,3.59
2023-01-22T09:46:48.674Z,3.66
2023-01-22T09:50:16.593Z,3.68
2023-01-22T09:53:44.119Z,3.65
2023-01-22T09:57:19.891Z,3.62
2023-01-22T10:00:39.537Z,3.80
2023-01-22T10:04:07.159Z,3.86
2023-01-22T10:07:35.037Z,3.95
2023-01-22T10:11:02.960Z,4.01
2023-01-22T10:14:30.640Z,4.05
2023-01-22T10:17:58.432Z,4.11
2023-01-22T10:21:26.586Z,4.21
2023-01-22T10:24:54.567Z,4.30
2023-01-22T10:28:04.354Z,4.46
2023-01-22T10:31:32.240Z,4.45
2023-01-22T10:34:59.810Z,4.45
2023-01-22T10:38:27.506Z,4.57
2023-01-22T10:41:54.906Z,4.67
2023-01-22T10:45:22.671Z,4.63
2023-01-22T10:48:50.321Z,4.68
2023-01-22T10:52:18.048Z,4.64
2023-01-22T10:55:25.800Z,4.70
2023-01-22T10:58:53.607Z,4.75
2023-01-22T11:02:01.993Z,4.71
2023-01-22T11:04:50.370Z,4.71
2023-01-22T11:08:18.202Z,4.67
2023-01-22T11:11:46.072Z,4.70
2023-01-22T11:15:14.930Z,4.70
2023-01-22T11:18:42.660Z,4.72
2023-01-22T11:21:51.327Z,4.69
2023-01-22T11:25:19.056Z,4.73
2023-01-22T11:28:46.662Z,4.94
2023-01-22T11:32:14.492Z,4.88
2023-01-22T11:35:42.506Z,4.93
2023-01-22T11:39:10.539Z,4.96
2023-01-22T11:42:38.412Z,5.05
2023-01-22T11:46:06.625Z,5.08
2023-01-22T11:49:14.756Z,5.08
2023-01-22T11:52:42.305Z,5.10
2023-01-22T11:55:50.558Z,5.20
2023-01-22T11:58:58.831Z,5.15
2023-01-22T12:02:26.457Z,5.16
2023-01-22T12:05:54.299Z,5.28
2023-01-22T12:09:21.945Z,5.22
2023-01-22T12:12:49.732Z,5.17
2023-01-22T12:15:38.481Z,5.21
2023-01-22T12:19:06.244Z,5.23
2023-01-22T12:22:33.996Z,5.28
2023-01-22T12:26:01.790Z,5.26
2023-01-22T12:28:51.228Z,5.24
2023-01-22T12:32:19.161Z,5.17
2023-01-22T12:35:46.985Z,5.16
2023-01-22T12:38:55.090Z,5.17
2023-01-22T12:42:23.036Z,5.20
2023-01-22T12:45:50.927Z,5.25
2023-01-22T12:49:18.704Z,5.24
2023-01-22T12:52:46.358Z,5.31
2023-01-22T12:55:55.130Z,5.30
2023-01-22T12:59:22.913Z,5.32
2023-01-22T13:02:50.671Z,5.35
2023-01-22T13:06:18.488Z,5.38
2023-01-22T13:09:46.099Z,5.42
2023-01-22T13:13:13.968Z,5.36
2023-01-22T13:16:41.821Z,5.34
2023-01-22T13:20:09.786Z,5.35
2023-01-22T13:23:37.485Z,5.23
2023-01-22T13:27:05.228Z,5.18
2023-01-22T13:30:32.918Z,5.14
2023-01-22T13:33:37.423Z,5.23
2023-01-22T13:36:45.932Z,5.24
2023-01-22T13:40:13.825Z,5.20
2023-01-22T13:43:22.620Z,5.22
2023-01-22T13:46:11.846Z,5.16
2023-01-22T13:49:00.510Z,5.08
2023-01-22T13:52:28.377Z,5.10
2023-01-22T13:55:56.015Z,5.07
2023-01-22T13:59:04.754Z,5.01
2023-01-22T14:02:32.546Z,4.92
2023-01-22T14:05:41.419Z,4.95
2023-01-22T14:08:30.108Z,5.01
2023-01-22T14:11:57.798Z,5.03
2023-01-22T14:15:25.696Z,5.02
2023-01-22T14:18:53.490Z,5.02
2023-01-22T14:22:21.115Z,5.00
2023-01-22T14:25:49.059Z,4.89
2023-01-22T14:29:17.018Z,4.84
2023-01-22T14:32:44.989Z,4.77
2023-01-22T14:36:12.913Z,4.71
2023-01-22T14:39:40.546Z,4.66
2023-01-22T14:43:08.330Z,4.59
2023-01-22T14:46:36.030Z,4.67
2023-01-22T14:49:44.473Z,4.68
2023-01-22T14:53:12.288Z,4.58
2023-01-22T14:56:40.070Z,4.63
2023-01-22T15:00:07.830Z,4.70
2023-01-22T15:03:35.538Z,4.68
2023-01-22T15:06:43.565Z,4.58
2023-01-22T15:10:11.188Z,4.64
2023-01-22T15:13:39.016Z,4.69
2023-01-22T15:17:06.870Z,4.68
2023-01-22T15:20:34.688Z,4.59
2023-01-22T15:24:02.313Z,4.55
2023-01-22T15:27:11.812Z,4.51
2023-01-22T15:30:39.616Z,4.45
2023-01-22T15:34:07.503Z,4.36
2023-01-22T15:37:35.404Z,4.37
2023-01-22T15:41:03.043Z,4.41
2023-01-22T15:43:52.420Z,4.44
2023-01-22T15:47:20.256Z,4.42
2023-01-22T15:50:48.194Z,4.38
2023-01-22T15:54:15.817Z,4.39
2023-01-22T15:57:25.333Z,4.39
2023-01-22T16:00:53.204Z,4.42
2023-01-22T16:04:20.811Z,4.38
2023-01-22T16:07:52.180Z,4.36
2023-01-22T16:11:16.281Z,4.37
2023-01-22T16:14:44.332Z,4.35
2023-01-22T16:18:11.989Z,4.42
2023-01-22T16:21:39.579Z,4.45
2023-01-22T16:25:07.357Z,4.46
2023-01-22T16:28:35.369Z,4.41
2023-01-22T16:32:03.112Z,4.40
2023-01-22T16:35:30.804Z,4.42
2023-01-22T16:38:58.877Z,4.45
2023-01-22T16:42:26.679Z,4.47
2023-01-22T16:45:54.510Z,4.51
2023-01-22T16:49:03.416Z,4.56
2023-01-22T16:52:31.008Z,4.53
2023-01-22T16:55:58.753Z,4.50
2023-01-22T16:59:07.318Z,4.49
2023-01-22T17:02:35.286Z,4.56
2023-01-22T17:06:02.817Z,4.58
2023-01-22T17:08:32.758Z,4.60
2023-01-22T17:12:00.505Z,4.63
2023-01-22T17:15:28.275Z,4.66
2023-01-22T17:18:56.065Z,4.70
2023-01-22T17:22:23.878Z,4.73
2023-01-22T17:25:51.688Z,4.76
2023-01-22T17:29:19.209Z,4.69
2023-01-22T17:32:47.730Z,4.67
2023-01-22T17:35:54.638Z,4.65
2023-01-22T17:39:02.960Z,4.62
2023-01-22T17:42:30.785Z,4.67
2023-01-22T17:45:58.454Z,4.73
2023-01-22T17:49:26.182Z,4.78
2023-01-22T17:52:53.823Z,4.81
2023-01-22T17:55:42.671Z,4.84
2023-01-22T17:58:50.853Z,4.81
2023-01-22T18:02:18.430Z,4.82
2023-01-22T18:05:46.293Z,4.85
2023-01-22T18:09:14.041Z,4.83
2023-01-22T18:12:41.597Z,4.74
2023-01-22T18:16:09.411Z,4.75
2023-01-22T18:18:58.133Z,4.77
2023-01-22T18:22:25.663Z,4.81
2023-01-22T18:25:53.363Z,4.90
2023-01-22T18:29:21.088Z,4.92
2023-01-22T18:32:49.026Z,4.88
2023-01-22T18:36:16.729Z,4.93
2023-01-22T18:39:44.394Z,4.94
2023-01-22T18:43:12.249Z,4.97
2023-01-22T18:46:39.706Z,4.99
2023-01-22T18:50:07.605Z,5.06
2023-01-22T18:53:17.531Z,5.09
2023-01-22T18:56:45.359Z,5.14
2023-01-22T19:00:13.055Z,5.15
2023-01-22T19:03:40.651Z,5.18
2023-01-22T19:06:56.546Z,5.22
2023-01-22T19:10:24.115Z,5.25
2023-01-22T19:13:51.618Z,5.29
2023-01-22T19:17:19.427Z,5.31
2023-01-22T19:20:47.211Z,5.33
2023-01-22T19:23:55.749Z,5.38
2023-01-22T19:27:23.656Z,5.41
2023-01-22T19:30:32.092Z,5.39
2023-01-22T19:33:40.136Z,5.41
2023-01-22T19:37:07.794Z,5.39
2023-01-22T19:40:35.791Z,5.36
2023-01-22T19:44:03.515Z,5.42
2023-01-22T19:47:19.127Z,5.46
2023-01-22T19:50:46.858Z,5.45
2023-01-22T19:54:14.515Z,5.44
2023-01-22T19:57:42.301Z,5.39
2023-01-22T20:00:50.785Z,5.38
2023-01-22T20:03:41.693Z,5.36
2023-01-22T20:07:09.624Z,5.37
2023-01-22T20:10:18.867Z,5.36
2023-01-22T20:12:48.130Z,5.36
2023-01-22T20:15:38.965Z,5.35
2023-01-22T20:18:42.642Z,5.31
2023-01-22T20:22:10.247Z,5.33
2023-01-22T20:25:38.227Z,5.34
2023-01-22T20:29:05.975Z,5.32
2023-01-22T20:32:33.888Z,5.31
2023-01-22T20:35:42.122Z,5.27
2023-01-22T20:39:11.134Z,5.32
2023-01-22T20:42:38.972Z,5.33
2023-01-22T20:46:06.770Z,5.35
2023-01-22T20:49:16.200Z,5.48
2023-01-22T20:52:24.943Z,5.53
2023-01-22T20:55:52.844Z,5.53
2023-01-22T20:59:01.712Z,5.52
2023-01-22T21:02:29.381Z,5.56
2023-01-22T21:05:37.451Z,5.54
2023-01-22T21:09:05.025Z,5.42
2023-01-22T21:12:13.164Z,5.39
2023-01-22T21:15:40.732Z,5.28
2023-01-22T21:19:08.386Z,5.15
2023-01-22T21:22:36.140Z,5.00
2023-01-22T21:26:03.935Z,4.93
2023-01-22T21:29:31.608Z,4.84
2023-01-22T21:32:59.225Z,4.91
2023-01-22T21:36:07.877Z,4.89
2023-01-22T21:39:35.515Z,4.84
2023-01-22T21:42:43.957Z,4.79
2023-01-22T21:46:11.588Z,4.77
2023-01-22T21:49:20.054Z,4.81
2023-01-22T21:52:49.054Z,4.79
2023-01-22T21:56:15.351Z,4.73
2023-01-22T21:59:43.148Z,4.67
2023-01-22T22:02:52.110Z,4.64
2023-01-22T22:05:41.749Z,4.56
2023-01-22T22:09:09.295Z,4.43
2023-01-22T22:12:36.858Z,4.37
2023-01-22T22:16:04.321Z,4.34
2023-01-22T22:19:31.813Z,4.44
2023-01-22T22:22:59.509Z,4.42
2023-01-22T22:26:27.282Z,4.41
2023-01-22T22:29:54.956Z,4.56
2023-01-22T22:33:04.533Z,4.67
2023-01-22T22:36:13.234Z,4.78
2023-01-22T22:39:40.694Z,4.83
2023-01-22T22:43:08.350Z,4.87
2023-01-22T22:46:33.652Z,4.81
2023-01-22T22:49:41.387Z,4.72
2023-01-22T22:53:08.892Z,4.69
2023-01-22T22:56:24.370Z,4.74
2023-01-22T22:59:52.039Z,4.87
2023-01-22T23:02:59.795Z,4.89
2023-01-22T23:06:27.560Z,4.85
2023-01-22T23:09:55.264Z,4.81
2023-01-22T23:13:22.829Z,4.81
2023-01-22T23:16:50.655Z,4.85
2023-01-22T23:20:26.625Z,4.91
2023-01-22T23:23:54.322Z,4.93
2023-01-22T23:27:21.917Z,4.93
2023-01-22T23:30:30.639Z,4.96
2023-01-22T23:33:38.584Z,4.94
2023-01-22T23:37:06.322Z,4.92
2023-01-22T23:40:33.874Z,4.88
2023-01-22T23:43:41.662Z,4.86
2023-01-22T23:47:09.478Z,4.79
2023-01-22T23:50:37.080Z,4.72
2023-01-22T23:54:04.860Z,4.73
2023-01-22T23:57:32.811Z,4.71
